sensor_id;sensor_type;location;lat;lon;timestamp;P1;durP1;ratioP1;P2;durP2;ratioP2
10341;SDS011;5216;54.602;18.356;2022-12-07T00:00:47;12.93;;;8.00;;
10341;SDS011;5216;54.602;18.356;2022-12-07T00:03:14;9.63;;;6.73;;
10341;SDS011;5216;54.602;18.356;2022-12-07T00:05:40;20.30;;;12.27;;
10341;SDS011;5216;54.602;18.356;2022-12-07T00:08:07;8.27;;;6.97;;
10341;SDS011;5216;54.602;18.356;2022-12-07T00:10:34;9.87;;;6.27;;
10341;SDS011;5216;54.602;18.356;2022-12-07T00:13:00;22.80;;;13.83;;
10341;SDS011;5216;54.602;18.356;2022-12-07T00:15:27;11.00;;;7.60;;
10341;SDS011;5216;54.602;18.356;2022-12-07T00:17:53;7.90;;;6.47;;
10341;SDS011;5216;54.602;18.356;2022-12-07T00:20:19;8.63;;;6.27;;
10341;SDS011;5216;54.602;18.356;2022-12-07T00:22:46;9.80;;;6.90;;
10341;SDS011;5216;54.602;18.356;2022-12-07T00:25:12;8.17;;;6.27;;
10341;SDS011;5216;54.602;18.356;2022-12-07T00:27:39;6.53;;;5.93;;
10341;SDS011;5216;54.602;18.356;2022-12-07T00:30:05;9.97;;;6.83;;
10341;SDS011;5216;54.602;18.356;2022-12-07T00:32:32;10.67;;;7.37;;
10341;SDS011;5216;54.602;18.356;2022-12-07T00:34:58;15.67;;;8.60;;
10341;SDS011;5216;54.602;18.356;2022-12-07T00:37:25;23.33;;;12.17;;
10341;SDS011;5216;54.602;18.356;2022-12-07T00:39:51;9.40;;;6.10;;
10341;SDS011;5216;54.602;18.356;2022-12-07T00:42:18;8.37;;;6.30;;
10341;SDS011;5216;54.602;18.356;2022-12-07T00:44:44;12.10;;;8.10;;
10341;SDS011;5216;54.602;18.356;2022-12-07T00:47:10;15.50;;;8.23;;
10341;SDS011;5216;54.602;18.356;2022-12-07T00:49:37;26.80;;;13.77;;
10341;SDS011;5216;54.602;18.356;2022-12-07T00:52:03;19.70;;;10.63;;
10341;SDS011;5216;54.602;18.356;2022-12-07T00:54:30;8.43;;;6.33;;
10341;SDS011;5216;54.602;18.356;2022-12-07T00:56:56;13.77;;;8.97;;
10341;SDS011;5216;54.602;18.356;2022-12-07T00:59:23;37.73;;;18.00;;
10341;SDS011;5216;54.602;18.356;2022-12-07T01:01:49;29.90;;;15.07;;
10341;SDS011;5216;54.602;18.356;2022-12-07T01:04:16;13.03;;;8.33;;
10341;SDS011;5216;54.602;18.356;2022-12-07T01:06:42;25.90;;;13.40;;
10341;SDS011;5216;54.602;18.356;2022-12-07T01:09:09;34.57;;;15.37;;
10341;SDS011;5216;54.602;18.356;2022-12-07T01:11:35;13.20;;;8.67;;
10341;SDS011;5216;54.602;18.356;2022-12-07T01:14:02;11.17;;;7.13;;
10341;SDS011;5216;54.602;18.356;2022-12-07T01:16:29;10.43;;;7.30;;
10341;SDS011;5216;54.602;18.356;2022-12-07T01:18:56;22.03;;;12.17;;
10341;SDS011;5216;54.602;18.356;2022-12-07T01:21:27;13.63;;;8.33;;
10341;SDS011;5216;54.602;18.356;2022-12-07T01:23:53;8.67;;;6.20;;
10341;SDS011;5216;54.602;18.356;2022-12-07T01:26:21;9.47;;;6.67;;
10341;SDS011;5216;54.602;18.356;2022-12-07T01:28:48;10.70;;;7.53;;
10341;SDS011;5216;54.602;18.356;2022-12-07T01:31:16;9.67;;;6.80;;
10341;SDS011;5216;54.602;18.356;2022-12-07T01:33:44;11.13;;;8.40;;
10341;SDS011;5216;54.602;18.356;2022-12-07T01:36:18;7.00;;;5.87;;
10341;SDS011;5216;54.602;18.356;2022-12-07T01:38:46;9.77;;;7.70;;
10341;SDS011;5216;54.602;18.356;2022-12-07T01:41:13;8.23;;;6.00;;
10341;SDS011;5216;54.602;18.356;2022-12-07T01:46:24;8.03;;;5.47;;
10341;SDS011;5216;54.602;18.356;2022-12-07T01:48:51;7.30;;;5.77;;
10341;SDS011;5216;54.602;18.356;2022-12-07T01:51:17;7.93;;;6.60;;
10341;SDS011;5216;54.602;18.356;2022-12-07T01:53:44;7.80;;;6.13;;
10341;SDS011;5216;54.602;18.356;2022-12-07T01:56:12;7.40;;;5.63;;
10341;SDS011;5216;54.602;18.356;2022-12-07T01:58:43;7.80;;;6.17;;
10341;SDS011;5216;54.602;18.356;2022-12-07T02:01:09;6.00;;;5.40;;
10341;SDS011;5216;54.602;18.356;2022-12-07T02:03:38;7.67;;;5.60;;
10341;SDS011;5216;54.602;18.356;2022-12-07T02:06:05;6.67;;;5.10;;
10341;SDS011;5216;54.602;18.356;2022-12-07T02:08:33;6.40;;;5.20;;
10341;SDS011;5216;54.602;18.356;2022-12-07T02:11:00;6.93;;;5.60;;
10341;SDS011;5216;54.602;18.356;2022-12-07T02:13:30;6.63;;;5.40;;
10341;SDS011;5216;54.602;18.356;2022-12-07T02:26:36;6.77;;;5.37;;
10341;SDS011;5216;54.602;18.356;2022-12-07T02:29:10;7.93;;;5.87;;
10341;SDS011;5216;54.602;18.356;2022-12-07T02:31:43;7.57;;;5.60;;
10341;SDS011;5216;54.602;18.356;2022-12-07T02:34:18;7.87;;;6.50;;
10341;SDS011;5216;54.602;18.356;2022-12-07T02:36:46;8.50;;;5.80;;
10341;SDS011;5216;54.602;18.356;2022-12-07T02:39:20;6.90;;;5.50;;
10341;SDS011;5216;54.602;18.356;2022-12-07T02:41:52;5.40;;;4.40;;
10341;SDS011;5216;54.602;18.356;2022-12-07T02:44:23;5.33;;;4.50;;
10341;SDS011;5216;54.602;18.356;2022-12-07T02:46:54;5.57;;;4.60;;
10341;SDS011;5216;54.602;18.356;2022-12-07T02:49:22;5.67;;;4.77;;
10341;SDS011;5216;54.602;18.356;2022-12-07T02:51:49;4.93;;;4.13;;
10341;SDS011;5216;54.602;18.356;2022-12-07T02:54:17;14.07;;;8.90;;
10341;SDS011;5216;54.602;18.356;2022-12-07T02:59:20;9.90;;;6.57;;
10341;SDS011;5216;54.602;18.356;2022-12-07T03:01:55;12.03;;;7.00;;
10341;SDS011;5216;54.602;18.356;2022-12-07T03:06:53;10.37;;;6.33;;
10341;SDS011;5216;54.602;18.356;2022-12-07T03:09:39;9.23;;;6.47;;
10341;SDS011;5216;54.602;18.356;2022-12-07T03:12:11;8.70;;;5.77;;
10341;SDS011;5216;54.602;18.356;2022-12-07T03:14:40;5.67;;;4.80;;
10341;SDS011;5216;54.602;18.356;2022-12-07T03:17:10;6.73;;;5.00;;
10341;SDS011;5216;54.602;18.356;2022-12-07T03:19:39;7.53;;;5.30;;
10341;SDS011;5216;54.602;18.356;2022-12-07T03:22:10;7.03;;;5.17;;
10341;SDS011;5216;54.602;18.356;2022-12-07T03:24:51;6.43;;;5.20;;
10341;SDS011;5216;54.602;18.356;2022-12-07T03:27:23;7.57;;;5.33;;
10341;SDS011;5216;54.602;18.356;2022-12-07T03:29:54;6.47;;;4.97;;
10341;SDS011;5216;54.602;18.356;2022-12-07T03:32:25;5.43;;;4.80;;
10341;SDS011;5216;54.602;18.356;2022-12-07T03:34:56;5.30;;;4.33;;
10341;SDS011;5216;54.602;18.356;2022-12-07T03:37:26;5.47;;;4.10;;
10341;SDS011;5216;54.602;18.356;2022-12-07T03:42:34;4.03;;;3.50;;
10341;SDS011;5216;54.602;18.356;2022-12-07T03:45:01;4.37;;;3.90;;
10341;SDS011;5216;54.602;18.356;2022-12-07T03:50:25;13.20;;;7.33;;
10341;SDS011;5216;54.602;18.356;2022-12-07T03:53:02;4.30;;;3.60;;
10341;SDS011;5216;54.602;18.356;2022-12-07T03:55:31;4.40;;;3.60;;
10341;SDS011;5216;54.602;18.356;2022-12-07T03:58:00;6.87;;;4.93;;
10341;SDS011;5216;54.602;18.356;2022-12-07T04:00:27;14.67;;;8.80;;
10341;SDS011;5216;54.602;18.356;2022-12-07T04:02:54;10.70;;;5.23;;
10341;SDS011;5216;54.602;18.356;2022-12-07T04:05:22;5.57;;;4.20;;
10341;SDS011;5216;54.602;18.356;2022-12-07T04:07:49;4.67;;;3.70;;
10341;SDS011;5216;54.602;18.356;2022-12-07T04:10:16;4.27;;;3.60;;
10341;SDS011;5216;54.602;18.356;2022-12-07T04:12:42;3.50;;;3.20;;
10341;SDS011;5216;54.602;18.356;2022-12-07T04:15:09;5.57;;;3.13;;
10341;SDS011;5216;54.602;18.356;2022-12-07T04:17:35;3.67;;;3.10;;
10341;SDS011;5216;54.602;18.356;2022-12-07T04:20:02;4.90;;;3.53;;
10341;SDS011;5216;54.602;18.356;2022-12-07T04:22:30;4.37;;;3.27;;
10341;SDS011;5216;54.602;18.356;2022-12-07T04:24:56;3.17;;;2.87;;
10341;SDS011;5216;54.602;18.356;2022-12-07T04:27:23;4.30;;;3.00;;
10341;SDS011;5216;54.602;18.356;2022-12-07T04:29:49;3.30;;;2.60;;
10341;SDS011;5216;54.602;18.356;2022-12-07T04:32:16;2.70;;;2.50;;
10341;SDS011;5216;54.602;18.356;2022-12-07T04:34:42;3.20;;;2.80;;
10341;SDS011;5216;54.602;18.356;2022-12-07T04:37:09;13.77;;;11.43;;
10341;SDS011;5216;54.602;18.356;2022-12-07T04:39:35;4.90;;;4.30;;
10341;SDS011;5216;54.602;18.356;2022-12-07T04:42:02;3.43;;;2.70;;
10341;SDS011;5216;54.602;18.356;2022-12-07T04:44:28;2.60;;;2.40;;
10341;SDS011;5216;54.602;18.356;2022-12-07T04:46:55;2.67;;;2.27;;
10341;SDS011;5216;54.602;18.356;2022-12-07T04:49:23;3.93;;;2.60;;
10341;SDS011;5216;54.602;18.356;2022-12-07T04:51:50;2.40;;;2.20;;
10341;SDS011;5216;54.602;18.356;2022-12-07T04:54:17;3.30;;;2.60;;
10341;SDS011;5216;54.602;18.356;2022-12-07T04:56:43;3.43;;;3.13;;
10341;SDS011;5216;54.602;18.356;2022-12-07T04:59:10;3.10;;;2.50;;
10341;SDS011;5216;54.602;18.356;2022-12-07T05:01:37;3.60;;;3.30;;
10341;SDS011;5216;54.602;18.356;2022-12-07T05:04:04;3.17;;;2.60;;
10341;SDS011;5216;54.602;18.356;2022-12-07T05:06:30;3.30;;;2.10;;
10341;SDS011;5216;54.602;18.356;2022-12-07T05:08:57;4.57;;;2.90;;
10341;SDS011;5216;54.602;18.356;2022-12-07T05:11:23;2.57;;;2.33;;
10341;SDS011;5216;54.602;18.356;2022-12-07T05:14:13;3.47;;;3.03;;
10341;SDS011;5216;54.602;18.356;2022-12-07T05:16:40;4.73;;;3.50;;
10341;SDS011;5216;54.602;18.356;2022-12-07T05:19:07;2.60;;;2.17;;
10341;SDS011;5216;54.602;18.356;2022-12-07T05:21:34;3.97;;;2.90;;
10341;SDS011;5216;54.602;18.356;2022-12-07T05:24:01;3.67;;;3.30;;
10341;SDS011;5216;54.602;18.356;2022-12-07T05:26:28;2.63;;;2.40;;
10341;SDS011;5216;54.602;18.356;2022-12-07T05:28:54;2.97;;;2.53;;
10341;SDS011;5216;54.602;18.356;2022-12-07T05:31:22;2.30;;;2.10;;
10341;SDS011;5216;54.602;18.356;2022-12-07T05:33:48;2.53;;;1.80;;
10341;SDS011;5216;54.602;18.356;2022-12-07T05:36:15;2.13;;;1.80;;
10341;SDS011;5216;54.602;18.356;2022-12-07T05:38:42;1.90;;;1.73;;
10341;SDS011;5216;54.602;18.356;2022-12-07T05:41:08;2.23;;;2.03;;
10341;SDS011;5216;54.602;18.356;2022-12-07T05:43:55;1.50;;;1.23;;
10341;SDS011;5216;54.602;18.356;2022-12-07T05:46:22;1.33;;;1.23;;
10341;SDS011;5216;54.602;18.356;2022-12-07T05:48:48;1.30;;;1.20;;
10341;SDS011;5216;54.602;18.356;2022-12-07T05:51:15;1.20;;;1.10;;
10341;SDS011;5216;54.602;18.356;2022-12-07T05:53:41;1.10;;;1.00;;
10341;SDS011;5216;54.602;18.356;2022-12-07T05:56:08;2.50;;;2.10;;
10341;SDS011;5216;54.602;18.356;2022-12-07T05:58:34;3.33;;;2.30;;
10341;SDS011;5216;54.602;18.356;2022-12-07T06:01:19;2.77;;;2.20;;
10341;SDS011;5216;54.602;18.356;2022-12-07T06:03:46;1.60;;;1.50;;
10341;SDS011;5216;54.602;18.356;2022-12-07T06:06:15;2.40;;;1.90;;
10341;SDS011;5216;54.602;18.356;2022-12-07T06:08:41;0.93;;;0.83;;
10341;SDS011;5216;54.602;18.356;2022-12-07T06:11:08;1.40;;;1.23;;
10341;SDS011;5216;54.602;18.356;2022-12-07T06:13:53;1.87;;;1.67;;
10341;SDS011;5216;54.602;18.356;2022-12-07T06:16:19;1.47;;;1.10;;
10341;SDS011;5216;54.602;18.356;2022-12-07T06:18:48;1.57;;;1.40;;
10341;SDS011;5216;54.602;18.356;2022-12-07T06:21:14;1.10;;;0.80;;
10341;SDS011;5216;54.602;18.356;2022-12-07T06:23:41;1.33;;;1.13;;
10341;SDS011;5216;54.602;18.356;2022-12-07T06:26:07;5.50;;;1.40;;
10341;SDS011;5216;54.602;18.356;2022-12-07T06:28:34;3.70;;;2.40;;
10341;SDS011;5216;54.602;18.356;2022-12-07T06:31:01;2.77;;;1.57;;
10341;SDS011;5216;54.602;18.356;2022-12-07T06:33:28;1.80;;;1.33;;
10341;SDS011;5216;54.602;18.356;2022-12-07T06:35:55;1.40;;;1.20;;
10341;SDS011;5216;54.602;18.356;2022-12-07T06:38:21;2.67;;;2.20;;
10341;SDS011;5216;54.602;18.356;2022-12-07T06:40:48;2.00;;;1.60;;
10341;SDS011;5216;54.602;18.356;2022-12-07T06:43:14;1.60;;;1.30;;
10341;SDS011;5216;54.602;18.356;2022-12-07T06:45:41;2.20;;;1.70;;
10341;SDS011;5216;54.602;18.356;2022-12-07T06:48:08;1.77;;;1.57;;
10341;SDS011;5216;54.602;18.356;2022-12-07T06:50:34;2.13;;;1.20;;
10341;SDS011;5216;54.602;18.356;2022-12-07T06:53:01;1.83;;;1.30;;
10341;SDS011;5216;54.602;18.356;2022-12-07T06:55:27;1.30;;;1.20;;
10341;SDS011;5216;54.602;18.356;2022-12-07T06:57:54;1.30;;;1.20;;
10341;SDS011;5216;54.602;18.356;2022-12-07T07:00:20;1.87;;;1.10;;
10341;SDS011;5216;54.602;18.356;2022-12-07T07:02:48;9.47;;;7.87;;
10341;SDS011;5216;54.602;18.356;2022-12-07T07:05:14;2.10;;;1.27;;
10341;SDS011;5216;54.602;18.356;2022-12-07T07:07:42;1.93;;;1.40;;
10341;SDS011;5216;54.602;18.356;2022-12-07T07:10:31;5.20;;;1.70;;
10341;SDS011;5216;54.602;18.356;2022-12-07T07:12:57;2.17;;;1.67;;
10341;SDS011;5216;54.602;18.356;2022-12-07T07:15:24;2.03;;;1.60;;
10341;SDS011;5216;54.602;18.356;2022-12-07T07:17:50;1.70;;;1.60;;
10341;SDS011;5216;54.602;18.356;2022-12-07T07:20:17;3.17;;;1.43;;
10341;SDS011;5216;54.602;18.356;2022-12-07T07:22:43;2.23;;;1.70;;
10341;SDS011;5216;54.602;18.356;2022-12-07T07:25:10;2.30;;;1.80;;
10341;SDS011;5216;54.602;18.356;2022-12-07T07:27:36;1.80;;;1.63;;
10341;SDS011;5216;54.602;18.356;2022-12-07T07:30:03;2.10;;;1.90;;
10341;SDS011;5216;54.602;18.356;2022-12-07T07:32:30;2.57;;;2.37;;
10341;SDS011;5216;54.602;18.356;2022-12-07T07:34:57;2.63;;;2.30;;
10341;SDS011;5216;54.602;18.356;2022-12-07T07:37:23;3.23;;;2.90;;
10341;SDS011;5216;54.602;18.356;2022-12-07T07:39:50;2.67;;;2.03;;
10341;SDS011;5216;54.602;18.356;2022-12-07T07:42:16;2.80;;;2.40;;
10341;SDS011;5216;54.602;18.356;2022-12-07T07:44:43;2.60;;;2.40;;
10341;SDS011;5216;54.602;18.356;2022-12-07T07:47:09;4.63;;;2.70;;
10341;SDS011;5216;54.602;18.356;2022-12-07T07:49:36;3.27;;;2.53;;
10341;SDS011;5216;54.602;18.356;2022-12-07T07:52:06;3.13;;;2.10;;
10341;SDS011;5216;54.602;18.356;2022-12-07T07:54:32;3.43;;;2.60;;
10341;SDS011;5216;54.602;18.356;2022-12-07T07:56:58;3.60;;;2.60;;
10341;SDS011;5216;54.602;18.356;2022-12-07T07:59:25;4.57;;;2.77;;
10341;SDS011;5216;54.602;18.356;2022-12-07T08:01:51;5.37;;;2.50;;
10341;SDS011;5216;54.602;18.356;2022-12-07T08:04:18;3.70;;;2.83;;
10341;SDS011;5216;54.602;18.356;2022-12-07T08:06:45;3.40;;;3.10;;
10341;SDS011;5216;54.602;18.356;2022-12-07T08:09:11;3.47;;;2.93;;
10341;SDS011;5216;54.602;18.356;2022-12-07T08:11:38;4.03;;;2.97;;
10341;SDS011;5216;54.602;18.356;2022-12-07T08:14:04;3.97;;;3.00;;
10341;SDS011;5216;54.602;18.356;2022-12-07T08:16:31;5.00;;;4.07;;
10341;SDS011;5216;54.602;18.356;2022-12-07T08:18:57;6.20;;;3.73;;
10341;SDS011;5216;54.602;18.356;2022-12-07T08:21:24;4.97;;;3.43;;
10341;SDS011;5216;54.602;18.356;2022-12-07T08:23:50;5.67;;;4.03;;
10341;SDS011;5216;54.602;18.356;2022-12-07T08:26:17;5.83;;;3.70;;
10341;SDS011;5216;54.602;18.356;2022-12-07T08:28:43;6.33;;;5.53;;
10341;SDS011;5216;54.602;18.356;2022-12-07T08:31:12;5.37;;;4.43;;
10341;SDS011;5216;54.602;18.356;2022-12-07T08:33:39;6.57;;;5.33;;
10341;SDS011;5216;54.602;18.356;2022-12-07T08:36:06;8.27;;;6.23;;
10341;SDS011;5216;54.602;18.356;2022-12-07T08:38:34;5.37;;;2.90;;
10341;SDS011;5216;54.602;18.356;2022-12-07T08:41:01;3.10;;;2.80;;
10341;SDS011;5216;54.602;18.356;2022-12-07T08:43:28;3.40;;;2.63;;
10341;SDS011;5216;54.602;18.356;2022-12-07T08:48:30;3.07;;;2.50;;
10341;SDS011;5216;54.602;18.356;2022-12-07T08:50:57;3.20;;;2.90;;
10341;SDS011;5216;54.602;18.356;2022-12-07T08:53:24;2.70;;;2.50;;
10341;SDS011;5216;54.602;18.356;2022-12-07T08:55:50;3.40;;;2.33;;
10341;SDS011;5216;54.602;18.356;2022-12-07T08:58:17;3.33;;;2.60;;
10341;SDS011;5216;54.602;18.356;2022-12-07T09:00:43;3.47;;;2.47;;
10341;SDS011;5216;54.602;18.356;2022-12-07T09:03:10;2.70;;;2.23;;
10341;SDS011;5216;54.602;18.356;2022-12-07T09:05:36;3.10;;;2.50;;
10341;SDS011;5216;54.602;18.356;2022-12-07T09:08:02;3.17;;;2.40;;
10341;SDS011;5216;54.602;18.356;2022-12-07T09:10:29;3.83;;;2.93;;
10341;SDS011;5216;54.602;18.356;2022-12-07T09:12:56;2.80;;;2.10;;
10341;SDS011;5216;54.602;18.356;2022-12-07T09:15:30;3.60;;;2.30;;
10341;SDS011;5216;54.602;18.356;2022-12-07T09:17:57;2.60;;;2.30;;
10341;SDS011;5216;54.602;18.356;2022-12-07T09:20:23;2.80;;;2.30;;
10341;SDS011;5216;54.602;18.356;2022-12-07T09:22:53;3.67;;;3.23;;
10341;SDS011;5216;54.602;18.356;2022-12-07T09:25:20;3.60;;;2.90;;
10341;SDS011;5216;54.602;18.356;2022-12-07T09:27:46;3.80;;;3.23;;
10341;SDS011;5216;54.602;18.356;2022-12-07T09:30:13;4.33;;;3.07;;
10341;SDS011;5216;54.602;18.356;2022-12-07T09:32:39;2.13;;;1.90;;
10341;SDS011;5216;54.602;18.356;2022-12-07T09:35:06;2.33;;;2.10;;
10341;SDS011;5216;54.602;18.356;2022-12-07T09:37:32;2.73;;;2.23;;
10341;SDS011;5216;54.602;18.356;2022-12-07T09:40:02;2.57;;;1.73;;
10341;SDS011;5216;54.602;18.356;2022-12-07T09:42:41;3.80;;;2.30;;
10341;SDS011;5216;54.602;18.356;2022-12-07T09:45:13;2.30;;;2.10;;
10341;SDS011;5216;54.602;18.356;2022-12-07T09:47:40;1.77;;;1.60;;
10341;SDS011;5216;54.602;18.356;2022-12-07T09:50:10;2.30;;;2.00;;
10341;SDS011;5216;54.602;18.356;2022-12-07T09:52:38;2.50;;;2.07;;
10341;SDS011;5216;54.602;18.356;2022-12-07T09:55:12;2.93;;;2.10;;
10341;SDS011;5216;54.602;18.356;2022-12-07T09:57:39;3.77;;;2.20;;
10341;SDS011;5216;54.602;18.356;2022-12-07T10:00:13;4.73;;;3.37;;
10341;SDS011;5216;54.602;18.356;2022-12-07T10:02:40;2.57;;;2.13;;
10341;SDS011;5216;54.602;18.356;2022-12-07T10:05:16;2.50;;;2.30;;
10341;SDS011;5216;54.602;18.356;2022-12-07T10:07:49;3.03;;;2.70;;
10341;SDS011;5216;54.602;18.356;2022-12-07T10:10:34;2.20;;;2.00;;
10341;SDS011;5216;54.602;18.356;2022-12-07T10:13:14;2.77;;;2.43;;
10341;SDS011;5216;54.602;18.356;2022-12-07T10:18:21;2.97;;;2.37;;
10341;SDS011;5216;54.602;18.356;2022-12-07T10:20:59;3.07;;;2.23;;
10341;SDS011;5216;54.602;18.356;2022-12-07T10:23:26;2.27;;;2.00;;
10341;SDS011;5216;54.602;18.356;2022-12-07T10:25:53;2.63;;;2.00;;
10341;SDS011;5216;54.602;18.356;2022-12-07T10:28:21;3.83;;;2.30;;
10341;SDS011;5216;54.602;18.356;2022-12-07T10:30:58;2.80;;;2.50;;
10341;SDS011;5216;54.602;18.356;2022-12-07T10:33:29;4.40;;;2.53;;
10341;SDS011;5216;54.602;18.356;2022-12-07T10:35:57;3.20;;;2.33;;
10341;SDS011;5216;54.602;18.356;2022-12-07T10:38:24;2.60;;;2.40;;
10341;SDS011;5216;54.602;18.356;2022-12-07T10:41:05;3.80;;;2.50;;
10341;SDS011;5216;54.602;18.356;2022-12-07T10:43:32;2.57;;;2.00;;
10341;SDS011;5216;54.602;18.356;2022-12-07T10:51:37;2.57;;;2.37;;
10341;SDS011;5216;54.602;18.356;2022-12-07T10:54:12;2.43;;;2.23;;
10341;SDS011;5216;54.602;18.356;2022-12-07T11:02:09;3.87;;;2.27;;
10341;SDS011;5216;54.602;18.356;2022-12-07T11:08:09;2.30;;;2.10;;
10341;SDS011;5216;54.602;18.356;2022-12-07T11:13:12;2.60;;;2.30;;
10341;SDS011;5216;54.602;18.356;2022-12-07T11:15:48;2.47;;;2.27;;
10341;SDS011;5216;54.602;18.356;2022-12-07T11:18:32;2.50;;;2.17;;
10341;SDS011;5216;54.602;18.356;2022-12-07T11:28:31;3.13;;;2.60;;
10341;SDS011;5216;54.602;18.356;2022-12-07T11:31:06;3.20;;;2.70;;
10341;SDS011;5216;54.602;18.356;2022-12-07T11:33:38;2.60;;;2.37;;
10341;SDS011;5216;54.602;18.356;2022-12-07T11:41:09;2.53;;;2.20;;
10341;SDS011;5216;54.602;18.356;2022-12-07T11:44:19;3.10;;;2.80;;
10341;SDS011;5216;54.602;18.356;2022-12-07T11:46:40;2.83;;;2.53;;
10341;SDS011;5216;54.602;18.356;2022-12-07T11:51:58;2.73;;;2.43;;
10341;SDS011;5216;54.602;18.356;2022-12-07T11:54:29;4.47;;;3.30;;
10341;SDS011;5216;54.602;18.356;2022-12-07T11:56:56;3.47;;;3.17;;
10341;SDS011;5216;54.602;18.356;2022-12-07T11:59:28;5.27;;;4.23;;
10341;SDS011;5216;54.602;18.356;2022-12-07T12:01:58;3.30;;;3.00;;
10341;SDS011;5216;54.602;18.356;2022-12-07T12:04:41;3.07;;;2.53;;
10341;SDS011;5216;54.602;18.356;2022-12-07T12:07:21;3.87;;;2.90;;
10341;SDS011;5216;54.602;18.356;2022-12-07T12:16:02;3.00;;;2.70;;
10341;SDS011;5216;54.602;18.356;2022-12-07T12:18:48;3.83;;;2.33;;
10341;SDS011;5216;54.602;18.356;2022-12-07T12:21:17;3.80;;;3.30;;
10341;SDS011;5216;54.602;18.356;2022-12-07T12:23:48;3.20;;;2.60;;
10341;SDS011;5216;54.602;18.356;2022-12-07T12:26:20;3.20;;;2.70;;
10341;SDS011;5216;54.602;18.356;2022-12-07T12:28:54;3.43;;;3.03;;
10341;SDS011;5216;54.602;18.356;2022-12-07T12:33:53;3.00;;;2.70;;
10341;SDS011;5216;54.602;18.356;2022-12-07T12:39:09;5.30;;;4.20;;
10341;SDS011;5216;54.602;18.356;2022-12-07T12:51:43;3.83;;;2.83;;
10341;SDS011;5216;54.602;18.356;2022-12-07T12:54:20;3.73;;;3.43;;
10341;SDS011;5216;54.602;18.356;2022-12-07T13:02:21;2.97;;;2.40;;
10341;SDS011;5216;54.602;18.356;2022-12-07T13:13:05;4.00;;;3.27;;
10341;SDS011;5216;54.602;18.356;2022-12-07T13:15:42;3.87;;;3.40;;
10341;SDS011;5216;54.602;18.356;2022-12-07T13:20:57;2.50;;;2.10;;
10341;SDS011;5216;54.602;18.356;2022-12-07T13:26:03;3.67;;;2.40;;
10341;SDS011;5216;54.602;18.356;2022-12-07T13:28:37;3.47;;;2.80;;
10341;SDS011;5216;54.602;18.356;2022-12-07T13:31:14;2.97;;;2.30;;
10341;SDS011;5216;54.602;18.356;2022-12-07T13:33:45;4.60;;;3.90;;
10341;SDS011;5216;54.602;18.356;2022-12-07T13:36:17;4.57;;;4.17;;
10341;SDS011;5216;54.602;18.356;2022-12-07T13:38:52;5.37;;;4.53;;
10341;SDS011;5216;54.602;18.356;2022-12-07T13:41:21;4.63;;;3.97;;
10341;SDS011;5216;54.602;18.356;2022-12-07T13:43:53;4.87;;;4.37;;
10341;SDS011;5216;54.602;18.356;2022-12-07T13:46:24;7.33;;;5.60;;
10341;SDS011;5216;54.602;18.356;2022-12-07T13:48:54;11.23;;;8.20;;
10341;SDS011;5216;54.602;18.356;2022-12-07T13:51:23;5.70;;;4.70;;
10341;SDS011;5216;54.602;18.356;2022-12-07T13:53:52;8.73;;;7.83;;
10341;SDS011;5216;54.602;18.356;2022-12-07T13:56:20;4.90;;;4.20;;
10341;SDS011;5216;54.602;18.356;2022-12-07T13:58:48;6.57;;;5.53;;
10341;SDS011;5216;54.602;18.356;2022-12-07T14:01:15;5.03;;;4.13;;
10341;SDS011;5216;54.602;18.356;2022-12-07T14:03:41;5.13;;;4.07;;
10341;SDS011;5216;54.602;18.356;2022-12-07T14:06:15;4.60;;;3.37;;
10341;SDS011;5216;54.602;18.356;2022-12-07T14:08:42;5.67;;;3.47;;
10341;SDS011;5216;54.602;18.356;2022-12-07T14:11:16;3.80;;;3.03;;
10341;SDS011;5216;54.602;18.356;2022-12-07T14:13:55;3.70;;;2.80;;
10341;SDS011;5216;54.602;18.356;2022-12-07T14:16:30;2.43;;;2.23;;
10341;SDS011;5216;54.602;18.356;2022-12-07T14:18:57;4.77;;;4.27;;
10341;SDS011;5216;54.602;18.356;2022-12-07T14:21:28;5.90;;;4.43;;
10341;SDS011;5216;54.602;18.356;2022-12-07T14:26:33;7.97;;;6.47;;
10341;SDS011;5216;54.602;18.356;2022-12-07T14:31:45;4.23;;;3.43;;
10341;SDS011;5216;54.602;18.356;2022-12-07T14:34:12;4.37;;;3.77;;
10341;SDS011;5216;54.602;18.356;2022-12-07T14:36:39;6.30;;;4.37;;
10341;SDS011;5216;54.602;18.356;2022-12-07T14:39:05;5.83;;;4.40;;
10341;SDS011;5216;54.602;18.356;2022-12-07T14:41:38;8.33;;;7.23;;
10341;SDS011;5216;54.602;18.356;2022-12-07T14:44:18;5.63;;;4.73;;
10341;SDS011;5216;54.602;18.356;2022-12-07T14:46:50;4.97;;;3.70;;
10341;SDS011;5216;54.602;18.356;2022-12-07T14:49:37;9.30;;;8.13;;
10341;SDS011;5216;54.602;18.356;2022-12-07T14:52:04;5.17;;;4.30;;
10341;SDS011;5216;54.602;18.356;2022-12-07T14:54:52;3.97;;;3.53;;
10341;SDS011;5216;54.602;18.356;2022-12-07T14:57:22;5.37;;;4.30;;
10341;SDS011;5216;54.602;18.356;2022-12-07T14:59:49;5.23;;;4.17;;
10341;SDS011;5216;54.602;18.356;2022-12-07T15:02:16;6.00;;;4.47;;
10341;SDS011;5216;54.602;18.356;2022-12-07T15:04:47;7.10;;;3.87;;
10341;SDS011;5216;54.602;18.356;2022-12-07T15:07:19;6.43;;;4.67;;
10341;SDS011;5216;54.602;18.356;2022-12-07T15:09:46;5.87;;;4.50;;
10341;SDS011;5216;54.602;18.356;2022-12-07T15:12:13;7.50;;;4.83;;
10341;SDS011;5216;54.602;18.356;2022-12-07T15:14:40;6.20;;;5.10;;
10341;SDS011;5216;54.602;18.356;2022-12-07T15:17:09;4.50;;;3.70;;
10341;SDS011;5216;54.602;18.356;2022-12-07T15:19:48;3.23;;;2.50;;
10341;SDS011;5216;54.602;18.356;2022-12-07T15:22:15;4.13;;;3.07;;
10341;SDS011;5216;54.602;18.356;2022-12-07T15:24:42;5.30;;;4.57;;
10341;SDS011;5216;54.602;18.356;2022-12-07T15:27:08;2.90;;;2.20;;
10341;SDS011;5216;54.602;18.356;2022-12-07T15:29:35;3.60;;;3.00;;
10341;SDS011;5216;54.602;18.356;2022-12-07T15:32:02;3.37;;;2.93;;
10341;SDS011;5216;54.602;18.356;2022-12-07T15:34:29;3.43;;;2.93;;
10341;SDS011;5216;54.602;18.356;2022-12-07T15:37:05;4.00;;;3.57;;
10341;SDS011;5216;54.602;18.356;2022-12-07T15:39:32;5.77;;;3.83;;
10341;SDS011;5216;54.602;18.356;2022-12-07T15:42:00;5.23;;;4.57;;
10341;SDS011;5216;54.602;18.356;2022-12-07T15:44:27;16.93;;;15.10;;
10341;SDS011;5216;54.602;18.356;2022-12-07T15:47:12;6.20;;;5.07;;
10341;SDS011;5216;54.602;18.356;2022-12-07T15:49:39;4.90;;;3.90;;
10341;SDS011;5216;54.602;18.356;2022-12-07T15:52:05;6.77;;;5.73;;
10341;SDS011;5216;54.602;18.356;2022-12-07T15:54:32;4.83;;;4.00;;
10341;SDS011;5216;54.602;18.356;2022-12-07T15:56:59;6.17;;;5.23;;
10341;SDS011;5216;54.602;18.356;2022-12-07T15:59:27;4.60;;;3.90;;
10341;SDS011;5216;54.602;18.356;2022-12-07T16:01:54;4.33;;;3.87;;
10341;SDS011;5216;54.602;18.356;2022-12-07T16:04:22;4.07;;;3.67;;
10341;SDS011;5216;54.602;18.356;2022-12-07T16:06:49;5.00;;;3.50;;
10341;SDS011;5216;54.602;18.356;2022-12-07T16:09:17;6.20;;;4.60;;
10341;SDS011;5216;54.602;18.356;2022-12-07T16:11:44;11.57;;;8.80;;
10341;SDS011;5216;54.602;18.356;2022-12-07T16:14:11;11.37;;;9.13;;
10341;SDS011;5216;54.602;18.356;2022-12-07T16:16:39;3.73;;;3.27;;
10341;SDS011;5216;54.602;18.356;2022-12-07T16:19:07;6.07;;;4.23;;
10341;SDS011;5216;54.602;18.356;2022-12-07T16:21:34;5.77;;;4.27;;
10341;SDS011;5216;54.602;18.356;2022-12-07T16:24:02;4.70;;;4.20;;
10341;SDS011;5216;54.602;18.356;2022-12-07T16:26:29;6.23;;;4.47;;
10341;SDS011;5216;54.602;18.356;2022-12-07T16:28:57;5.37;;;4.00;;
10341;SDS011;5216;54.602;18.356;2022-12-07T16:31:26;5.60;;;4.90;;
10341;SDS011;5216;54.602;18.356;2022-12-07T16:33:55;4.83;;;4.13;;
10341;SDS011;5216;54.602;18.356;2022-12-07T16:36:25;5.53;;;4.60;;
10341;SDS011;5216;54.602;18.356;2022-12-07T16:39:13;4.40;;;3.90;;
10341;SDS011;5216;54.602;18.356;2022-12-07T16:41:40;3.20;;;2.90;;
10341;SDS011;5216;54.602;18.356;2022-12-07T16:44:10;4.33;;;3.30;;